createdAt,value
2022-11-13T00:00:06.349Z,98818.53
2022-11-13T00:02:52.360Z,98815.72
2022-11-13T00:05:38.256Z,98806.56
2022-11-13T00:08:24.120Z,98815.84
2022-11-13T00:11:15.100Z,98810.78
2022-11-13T00:14:01.030Z,98808.34
2022-11-13T00:16:47.061Z,98806.75
2022-11-13T00:19:32.673Z,98810.88
2022-11-13T00:22:18.309Z,98809.69
2022-11-13T00:25:04.260Z,98806.09
2022-11-13T00:27:50.070Z,98807.81
2022-11-13T00:30:36.163Z,98803.03
2022-11-13T00:33:45.205Z,98797.75
2022-11-13T00:36:29.163Z,98796.47
2022-11-13T00:39:15.022Z,98797.56
2022-11-13T00:42:00.819Z,98800.06
2022-11-13T00:44:46.650Z,98799.63
2022-11-13T00:47:32.472Z,98798.63
2022-11-13T00:50:18.806Z,98800.63
2022-11-13T00:53:04.731Z,98795.47
2022-11-13T00:55:51.407Z,98796.75
2022-11-13T00:58:36.939Z,98787.38
2022-11-13T01:01:23.790Z,98789.56
2022-11-13T01:04:09.437Z,98783.25
2022-11-13T01:06:55.739Z,98775.22
2022-11-13T01:09:41.597Z,98775.03
2022-11-13T01:12:27.255Z,98780.47
2022-11-13T01:15:13.016Z,98780.75
2022-11-13T01:17:58.917Z,98776.31
2022-11-13T01:20:45.668Z,98764.25
2022-11-13T01:23:31.707Z,98770.19
2022-11-13T01:26:25.384Z,98764.44
2022-11-13T01:29:12.652Z,98761.72
2022-11-13T01:31:58.745Z,98762.34
2022-11-13T01:34:44.234Z,98769.16
2022-11-13T01:37:29.920Z,98770.84
2022-11-13T01:40:15.969Z,98764.66
2022-11-13T01:43:30.502Z,98760.25
2022-11-13T01:46:40.421Z,98762.56
2022-11-13T01:49:36.540Z,98763.56
2022-11-13T01:52:29.947Z,98754.31
2022-11-13T01:55:19.203Z,98743.59
2022-11-13T01:58:07.584Z,98742.72
2022-11-13T02:00:53.423Z,98742.91
2022-11-13T02:03:39.141Z,98752.69
2022-11-13T02:06:28.358Z,98748.41
2022-11-13T02:09:16.197Z,98748.59
2022-11-13T02:12:02.808Z,98752.72
2022-11-13T02:14:54.057Z,98751.72
2022-11-13T02:17:57.096Z,98752.91
2022-11-13T02:21:22.470Z,98749.13
2022-11-13T02:24:54.950Z,98743.47
2022-11-13T02:27:45.509Z,98738.97
2022-11-13T02:30:34.900Z,98746.69
2022-11-13T02:33:32.945Z,98746.16
2022-11-13T02:36:21.231Z,98747.97
2022-11-13T02:39:11.804Z,98751.38
2022-11-13T02:41:57.459Z,98747.59
2022-11-13T02:44:43.318Z,98748.97
2022-11-13T02:47:29.648Z,98756.16
2022-11-13T02:50:16.540Z,98743.72
2022-11-13T02:53:03.160Z,98751.94
2022-11-13T02:55:48.998Z,98746.81
2022-11-13T02:58:34.927Z,98745.44
2022-11-13T03:01:21.013Z,98751.47
2022-11-13T03:04:06.813Z,98753.28
2022-11-13T03:06:52.471Z,98754.28
2022-11-13T03:09:38.867Z,98759.22
2022-11-13T03:12:24.567Z,98756.88
2022-11-13T03:15:11.212Z,98751.63
2022-11-13T03:17:56.879Z,98749.69
2022-11-13T03:20:44.342Z,98740.94
2022-11-13T03:23:30.098Z,98745.72
2022-11-13T03:26:17.540Z,98745.97
2022-11-13T03:29:03.450Z,98737.16
2022-11-13T03:31:49.516Z,98740.69
2022-11-13T03:34:35.242Z,98744.38
2022-11-13T03:37:21.345Z,98737.19
2022-11-13T03:40:08.276Z,98734.28
2022-11-13T03:42:54.323Z,98735.63
2022-11-13T03:45:40.413Z,98741.28
2022-11-13T03:48:26.937Z,98732.06
2022-11-13T03:51:13.067Z,98743.38
2022-11-13T03:54:00.359Z,98735.28
2022-11-13T03:56:46.212Z,98741.66
2022-11-13T03:59:32.087Z,98733.91
2022-11-13T04:02:18.336Z,98736.91
2022-11-13T04:05:04.816Z,98727.28
2022-11-13T04:07:51.332Z,98722.75
2022-11-13T04:10:36.910Z,98722.56
2022-11-13T04:13:22.847Z,98731.34
2022-11-13T04:16:08.998Z,98732.00
2022-11-13T04:18:57.966Z,98728.56
2022-11-13T04:21:43.583Z,98729.84
2022-11-13T04:24:29.525Z,98730.66
2022-11-13T04:27:15.188Z,98731.00
2022-11-13T04:30:00.762Z,98722.63
2022-11-13T04:32:46.744Z,98737.50
2022-11-13T04:35:35.740Z,98733.03
2022-11-13T04:38:21.822Z,98740.75
2022-11-13T04:41:27.151Z,98732.44
2022-11-13T04:44:14.077Z,98727.41
2022-11-13T04:47:00.277Z,98732.00
2022-11-13T04:49:46.403Z,98739.00
2022-11-13T04:52:36.309Z,98731.06
2022-11-13T04:55:22.412Z,98728.47
2022-11-13T04:58:08.093Z,98731.91
2022-11-13T05:00:54.178Z,98731.72
2022-11-13T05:03:40.331Z,98737.03
2022-11-13T05:06:26.202Z,98733.28
2022-11-13T05:09:11.999Z,98733.06
2022-11-13T05:11:57.476Z,98721.19
2022-11-13T05:14:43.538Z,98729.50
2022-11-13T05:17:29.173Z,98731.38
2022-11-13T05:20:15.364Z,98732.22
2022-11-13T05:23:01.245Z,98722.78
2022-11-13T05:25:46.732Z,98728.44
2022-11-13T05:28:33.300Z,98729.75
2022-11-13T05:31:19.371Z,98724.34
2022-11-13T05:34:06.309Z,98729.56
2022-11-13T05:36:52.002Z,98724.88
2022-11-13T05:39:37.835Z,98730.38
2022-11-13T05:42:23.318Z,98726.34
2022-11-13T05:45:10.082Z,98736.16
2022-11-13T05:47:55.665Z,98738.78
2022-11-13T05:50:41.214Z,98735.38
2022-11-13T05:53:28.231Z,98739.50
2022-11-13T05:56:18.526Z,98737.72
2022-11-13T05:59:05.253Z,98732.66
2022-11-13T06:01:51.108Z,98737.09
2022-11-13T06:04:37.182Z,98737.81
2022-11-13T06:07:23.236Z,98727.72
2022-11-13T06:10:09.670Z,98725.09
2022-11-13T06:12:56.033Z,98725.00
2022-11-13T06:15:42.053Z,98725.66
2022-11-13T06:18:29.324Z,98727.09
2022-11-13T06:21:20.944Z,98721.50
2022-11-13T06:24:08.531Z,98720.22
2022-11-13T06:26:54.364Z,98724.69
2022-11-13T06:29:40.137Z,98727.44
2022-11-13T06:32:25.496Z,98728.09
2022-11-13T06:35:11.137Z,98727.91
2022-11-13T06:37:57.074Z,98721.41
2022-11-13T06:40:42.837Z,98724.25
2022-11-13T06:43:30.064Z,98727.53
2022-11-13T06:46:19.626Z,98732.31
2022-11-13T06:49:05.225Z,98743.34
2022-11-13T06:51:51.274Z,98729.19
2022-11-13T06:54:37.538Z,98724.63
2022-11-13T06:57:23.347Z,98723.38
2022-11-13T07:00:10.273Z,98730.41
2022-11-13T07:02:56.450Z,98735.25
2022-11-13T07:05:42.438Z,98731.63
2022-11-13T07:08:28.191Z,98725.06
2022-11-13T07:11:18.267Z,98738.56
2022-11-13T07:14:05.469Z,98735.41
2022-11-13T07:17:08.550Z,98734.69
2022-11-13T07:19:55.576Z,98729.78
2022-11-13T07:22:41.020Z,98726.91
2022-11-13T07:25:28.666Z,98731.13
2022-11-13T07:28:14.643Z,98727.72
2022-11-13T07:31:01.188Z,98736.44
2022-11-13T07:33:50.120Z,98734.69
2022-11-13T07:36:35.937Z,98735.75
2022-11-13T07:39:21.902Z,98745.69
2022-11-13T07:42:07.639Z,98747.47
2022-11-13T07:44:54.844Z,98739.06
2022-11-13T07:47:41.882Z,98743.22
2022-11-13T07:50:30.035Z,98746.84
2022-11-13T07:53:16.355Z,98745.13
2022-11-13T07:56:03.872Z,98746.97
2022-11-13T07:58:50.302Z,98746.41
2022-11-13T08:01:36.474Z,98760.16
2022-11-13T08:04:22.502Z,98762.84
2022-11-13T08:07:11.077Z,98762.41
2022-11-13T08:09:56.945Z,98770.28
2022-11-13T08:12:44.212Z,98766.38
2022-11-13T08:15:31.355Z,98765.03
2022-11-13T08:18:17.509Z,98765.75
2022-11-13T08:21:10.518Z,98764.78
2022-11-13T08:23:59.669Z,98768.63
2022-11-13T08:26:45.511Z,98764.69
2022-11-13T08:29:31.735Z,98758.72
2022-11-13T08:32:19.431Z,98761.66
2022-11-13T08:35:06.291Z,98748.41
2022-11-13T08:37:52.153Z,98751.31
2022-11-13T08:40:38.018Z,98753.88
2022-11-13T08:43:24.121Z,98753.69
2022-11-13T08:46:09.794Z,98761.94
2022-11-13T08:48:56.136Z,98754.34
2022-11-13T08:51:41.894Z,98755.78
2022-11-13T08:54:28.089Z,98759.91
2022-11-13T08:57:13.699Z,98766.91
2022-11-13T08:59:59.523Z,98767.38
2022-11-13T09:02:45.678Z,98763.72
2022-11-13T09:05:31.779Z,98759.88
2022-11-13T09:08:17.631Z,98753.13
2022-11-13T09:11:07.180Z,98756.88
2022-11-13T09:13:53.722Z,98758.78
2022-11-13T09:16:39.474Z,98765.38
2022-11-13T09:19:25.644Z,98762.19
2022-11-13T09:22:12.228Z,98758.16
2022-11-13T09:24:58.099Z,98758.06
2022-11-13T09:27:44.129Z,98761.38
2022-11-13T09:30:30.957Z,98762.69
2022-11-13T09:33:17.247Z,98761.72
2022-11-13T09:36:03.744Z,98762.44
2022-11-13T09:38:50.886Z,98758.94
2022-11-13T09:42:20.771Z,98757.50
2022-11-13T09:45:13.942Z,98754.31
2022-11-13T09:48:24.579Z,98756.69
2022-11-13T09:51:28.515Z,98748.88
2022-11-13T09:54:15.305Z,98742.00
2022-11-13T09:57:56.008Z,98743.22
2022-11-13T10:00:42.035Z,98741.59
2022-11-13T10:04:03.447Z,98728.72
2022-11-13T10:07:05.907Z,98726.00
2022-11-13T10:10:20.607Z,98722.22
2022-11-13T10:13:11.644Z,98718.00
2022-11-13T10:16:14.537Z,98716.66
2022-11-13T10:19:30.126Z,98703.69
2022-11-13T10:22:57.988Z,98704.13
2022-11-13T10:25:45.376Z,98708.19
2022-11-13T10:31:52.401Z,98702.63
2022-11-13T10:34:38.788Z,98709.56
2022-11-13T10:37:52.444Z,98695.56
2022-11-13T10:40:40.876Z,98695.72
2022-11-13T10:43:27.772Z,98697.22
2022-11-13T10:46:26.726Z,98693.38
2022-11-13T10:49:29.231Z,98704.59
2022-11-13T10:52:30.714Z,98695.13
2022-11-13T10:55:35.774Z,98692.03
2022-11-13T10:58:21.899Z,98689.19
2022-11-13T11:01:22.924Z,98700.63
2022-11-13T11:04:30.138Z,98694.50
2022-11-13T11:07:21.012Z,98696.53
2022-11-13T11:10:57.696Z,98692.00
2022-11-13T11:13:44.396Z,98694.00
2022-11-13T11:16:31.172Z,98694.72
2022-11-13T11:19:19.939Z,98699.13
2022-11-13T11:22:19.775Z,98698.66
2022-11-13T11:25:25.723Z,98694.53
2022-11-13T11:28:31.704Z,98688.03
2022-11-13T11:31:44.813Z,98675.97
2022-11-13T11:34:54.954Z,98669.81
2022-11-13T11:38:21.864Z,98662.88
2022-11-13T11:41:17.680Z,98659.13
2022-11-13T11:44:33.428Z,98640.44
2022-11-13T11:47:19.527Z,98641.47
2022-11-13T11:50:13.614Z,98637.84
2022-11-13T11:53:13.301Z,98640.88
2022-11-13T11:56:18.282Z,98644.31
2022-11-13T11:59:14.411Z,98635.59
2022-11-13T12:02:53.022Z,98629.19
2022-11-13T12:06:14.943Z,98637.19
2022-11-13T12:09:30.890Z,98630.50
2022-11-13T12:12:41.476Z,98626.28
2022-11-13T12:15:44.864Z,98615.91
2022-11-13T12:18:53.647Z,98608.25
2022-11-13T12:22:04.625Z,98598.97
2022-11-13T12:25:12.405Z,98598.66
2022-11-13T12:28:20.993Z,98589.63
2022-11-13T12:31:16.254Z,98589.66
2022-11-13T12:34:15.644Z,98578.19
2022-11-13T12:37:10.315Z,98577.63
2022-11-13T12:40:15.617Z,98571.03
2022-11-13T12:43:45.007Z,98565.53
2022-11-13T12:46:40.349Z,98566.00
2022-11-13T12:49:37.064Z,98556.53
2022-11-13T12:52:24.574Z,98551.06
2022-11-13T12:55:30.781Z,98550.28
2022-11-13T12:58:34.953Z,98540.91
2022-11-13T13:01:22.826Z,98542.53
2022-11-13T13:04:44.666Z,98534.19
2022-11-13T13:08:27.476Z,98538.13
2022-11-13T13:11:57.309Z,98530.31
2022-11-13T13:15:19.284Z,98518.56
2022-11-13T13:18:17.977Z,98512.69
2022-11-13T13:21:16.057Z,98512.94
2022-11-13T13:24:27.559Z,98521.69
2022-11-13T13:27:30.894Z,98515.06
2022-11-13T13:30:26.242Z,98519.63
2022-11-13T13:33:25.431Z,98517.97
2022-11-13T13:36:37.858Z,98518.16
2022-11-13T13:39:52.461Z,98514.63
2022-11-13T13:43:09.716Z,98519.47
2022-11-13T13:46:22.654Z,98517.72
2022-11-13T13:49:17.970Z,98519.91
2022-11-13T13:52:05.454Z,98512.13
2022-11-13T13:54:51.567Z,98506.25
2022-11-13T13:57:42.265Z,98510.44
2022-11-13T14:00:28.786Z,98509.41
2022-11-13T14:03:20.996Z,98499.41
2022-11-13T14:06:11.038Z,98505.22
2022-11-13T14:09:09.737Z,98498.97
2022-11-13T14:12:09.873Z,98491.94
2022-11-13T14:14:56.104Z,98491.75
2022-11-13T14:17:41.619Z,98495.94
2022-11-13T14:20:28.284Z,98491.13
2022-11-13T14:23:22.519Z,98490.16
2022-11-13T14:26:12.047Z,98487.09
2022-11-13T14:29:02.976Z,98489.81
2022-11-13T14:31:49.364Z,98487.47
2022-11-13T14:34:36.934Z,98482.50
2022-11-13T14:37:39.429Z,98484.06
2022-11-13T14:40:26.006Z,98476.91
2022-11-13T14:43:27.714Z,98478.22
2022-11-13T14:46:37.091Z,98472.97
2022-11-13T14:49:36.036Z,98474.59
2022-11-13T14:52:28.009Z,98476.53
2022-11-13T14:55:34.388Z,98476.44
2022-11-13T14:58:36.391Z,98475.53
2022-11-13T15:01:25.121Z,98473.81
2022-11-13T15:04:11.226Z,98471.72
2022-11-13T15:07:03.835Z,98473.13
2022-11-13T15:09:50.319Z,98468.06
2022-11-13T15:12:36.196Z,98473.31
2022-11-13T15:15:28.322Z,98463.91
2022-11-13T15:18:19.420Z,98467.50
2022-11-13T15:21:05.470Z,98461.28
2022-11-13T15:23:51.148Z,98464.44
2022-11-13T15:26:37.834Z,98458.63
2022-11-13T15:29:23.598Z,98458.56
2022-11-13T15:32:14.831Z,98459.16
2022-11-13T15:35:00.795Z,98459.38
2022-11-13T15:37:46.684Z,98468.50
2022-11-13T15:40:32.476Z,98455.97
2022-11-13T15:43:22.916Z,98466.84
2022-11-13T15:46:18.027Z,98467.50
2022-11-13T15:49:03.846Z,98468.09
2022-11-13T15:51:50.012Z,98464.56
2022-11-13T15:54:38.389Z,98460.34
2022-11-13T15:57:27.898Z,98467.09
2022-11-13T16:00:21.440Z,98468.41
2022-11-13T16:03:11.831Z,98469.72
2022-11-13T16:05:59.808Z,98470.50
2022-11-13T16:08:46.004Z,98471.56
2022-11-13T16:11:34.516Z,98468.69
2022-11-13T16:14:24.495Z,98473.63
2022-11-13T16:17:20.215Z,98469.44
2022-11-13T16:20:07.960Z,98470.47
2022-11-13T16:22:53.761Z,98467.88
2022-11-13T16:25:39.448Z,98468.03
2022-11-13T16:28:25.576Z,98469.28
2022-11-13T16:31:12.446Z,98470.72
2022-11-13T16:33:58.401Z,98472.97
2022-11-13T16:36:44.699Z,98467.22
2022-11-13T16:39:30.378Z,98472.28
2022-11-13T16:42:17.634Z,98467.56
2022-11-13T16:45:03.803Z,98455.78
2022-11-13T16:47:50.857Z,98454.38
2022-11-13T16:50:39.592Z,98450.38
2022-11-13T16:53:25.950Z,98453.00
2022-11-13T16:56:20.863Z,98443.16
2022-11-13T16:59:06.728Z,98451.81
2022-11-13T17:01:56.118Z,98445.81
2022-11-13T17:04:44.008Z,98450.81
2022-11-13T17:07:30.045Z,98443.38
2022-11-13T17:10:36.071Z,98439.19
2022-11-13T17:13:22.088Z,98450.25
2022-11-13T17:16:11.618Z,98442.13
2022-11-13T17:18:59.328Z,98441.16
2022-11-13T17:21:45.554Z,98438.31
2022-11-13T17:24:31.490Z,98447.63
2022-11-13T17:27:18.012Z,98438.00
2022-11-13T17:30:05.007Z,98443.19
2022-11-13T17:32:50.967Z,98442.50
2022-11-13T17:35:36.724Z,98446.56
2022-11-13T17:38:22.778Z,98446.16
2022-11-13T17:41:12.086Z,98450.81
2022-11-13T17:44:01.301Z,98450.88
2022-11-13T17:46:48.596Z,98441.28
2022-11-13T17:49:34.616Z,98446.13
2022-11-13T17:52:20.473Z,98448.38
2022-11-13T17:55:07.729Z,98447.00
2022-11-13T17:57:53.631Z,98449.44
2022-11-13T18:00:39.530Z,98451.06
2022-11-13T18:03:25.502Z,98448.19
2022-11-13T18:06:19.720Z,98447.56
2022-11-13T18:09:06.718Z,98440.94
2022-11-13T18:11:52.674Z,98445.66
2022-11-13T18:14:38.619Z,98441.38
2022-11-13T18:17:25.064Z,98444.13
2022-11-13T18:20:11.298Z,98449.88
2022-11-13T18:22:57.572Z,98443.44
2022-11-13T18:25:43.723Z,98447.06
2022-11-13T18:28:29.720Z,98437.56
2022-11-13T18:31:18.581Z,98441.25
2022-11-13T18:34:06.765Z,98440.34
2022-11-13T18:36:52.977Z,98448.44
2022-11-13T18:39:38.990Z,98450.09
2022-11-13T18:42:25.398Z,98445.47
2022-11-13T18:45:11.952Z,98444.91
2022-11-13T18:47:58.128Z,98445.69
2022-11-13T18:50:55.314Z,98446.91
2022-11-13T18:53:41.982Z,98443.22
2022-11-13T18:56:31.686Z,98434.97
2022-11-13T18:59:17.729Z,98437.63
2022-11-13T19:02:03.741Z,98445.06
2022-11-13T19:04:49.881Z,98440.69
2022-11-13T19:07:35.747Z,98437.13
2022-11-13T19:10:21.653Z,98433.50
2022-11-13T19:13:09.025Z,98435.50
2022-11-13T19:15:55.757Z,98430.28
2022-11-13T19:18:44.749Z,98428.81
2022-11-13T19:21:32.819Z,98431.91
2022-11-13T19:24:18.682Z,98438.97
2022-11-13T19:27:04.926Z,98431.94
2022-11-13T19:29:50.447Z,98434.75
2022-11-13T19:32:35.909Z,98426.69
2022-11-13T19:35:21.724Z,98436.16
2022-11-13T19:38:08.576Z,98433.75
2022-11-13T19:40:54.557Z,98436.16
2022-11-13T19:43:42.573Z,98425.28
2022-11-13T19:46:32.100Z,98426.91
2022-11-13T19:49:17.924Z,98422.25
2022-11-13T19:52:04.010Z,98418.84
2022-11-13T19:54:49.839Z,98419.63
2022-11-13T19:57:35.672Z,98424.88
2022-11-13T20:00:21.793Z,98425.47
2022-11-13T20:03:07.992Z,98427.88
2022-11-13T20:05:59.486Z,98429.88
2022-11-13T20:08:45.718Z,98433.91
2022-11-13T20:11:32.502Z,98436.50
2022-11-13T20:14:18.484Z,98431.28
2022-11-13T20:17:04.483Z,98432.50
2022-11-13T20:19:50.522Z,98432.50
2022-11-13T20:22:36.464Z,98431.47
2022-11-13T20:25:23.030Z,98440.75
2022-11-13T20:28:08.733Z,98431.50
2022-11-13T20:31:16.503Z,98430.06
2022-11-13T20:34:02.549Z,98428.81
2022-11-13T20:36:49.697Z,98421.16
2022-11-13T20:39:35.514Z,98421.38
2022-11-13T20:42:21.051Z,98426.63
2022-11-13T20:45:07.508Z,98422.38
2022-11-13T20:47:53.393Z,98422.44
2022-11-13T20:50:39.065Z,98418.22
2022-11-13T20:53:24.856Z,98416.81
2022-11-13T20:56:10.960Z,98417.78
2022-11-13T20:58:57.413Z,98431.66
2022-11-13T21:01:43.522Z,98430.25
2022-11-13T21:04:29.491Z,98430.41
2022-11-13T21:07:15.161Z,98439.69
2022-11-13T21:10:02.201Z,98440.09
2022-11-13T21:12:47.735Z,98443.91
2022-11-13T21:15:37.004Z,98446.72
2022-11-13T21:18:23.104Z,98443.72
2022-11-13T21:21:16.420Z,98442.69
2022-11-13T21:24:02.472Z,98434.19
2022-11-13T21:26:51.782Z,98435.22
2022-11-13T21:29:37.516Z,98428.97
2022-11-13T21:32:23.401Z,98427.38
2022-11-13T21:35:09.212Z,98426.78
2022-11-13T21:37:55.709Z,98422.97
2022-11-13T21:40:41.739Z,98410.47
2022-11-13T21:43:27.806Z,98416.25
2022-11-13T21:46:14.514Z,98417.25
2022-11-13T21:49:04.912Z,98414.47
2022-11-13T21:51:50.753Z,98412.41
2022-11-13T21:54:36.548Z,98405.75
2022-11-13T21:57:24.140Z,98411.00
2022-11-13T22:00:10.744Z,98411.56
2022-11-13T22:02:56.810Z,98410.94
2022-11-13T22:05:42.979Z,98410.09
2022-11-13T22:08:28.886Z,98416.09
2022-11-13T22:11:15.394Z,98412.88
2022-11-13T22:14:02.294Z,98420.75
2022-11-13T22:16:48.758Z,98411.66
2022-11-13T22:19:36.405Z,98419.84
2022-11-13T22:22:22.331Z,98418.00
2022-11-13T22:25:08.500Z,98417.25
2022-11-13T22:27:54.316Z,98414.97
2022-11-13T22:30:39.948Z,98414.84
2022-11-13T22:33:31.292Z,98417.84
2022-11-13T22:36:20.450Z,98420.28
2022-11-13T22:39:06.640Z,98411.16
2022-11-13T22:41:52.426Z,98414.59
2022-11-13T22:44:54.767Z,98399.53
2022-11-13T22:47:42.497Z,98408.75
2022-11-13T22:50:28.078Z,98402.88
2022-11-13T22:53:14.747Z,98399.06
2022-11-13T22:56:13.842Z,98395.31
2022-11-13T22:59:02.061Z,98396.41
2022-11-13T23:01:48.053Z,98392.44
2022-11-13T23:04:34.109Z,98387.03
2022-11-13T23:07:20.154Z,98374.00
2022-11-13T23:10:07.120Z,98388.00
2022-11-13T23:12:52.794Z,98383.81
2022-11-13T23:15:38.417Z,98384.28
2022-11-13T23:18:24.068Z,98382.03
2022-11-13T23:21:12.105Z,98374.94
2022-11-13T23:23:58.771Z,98381.78
2022-11-13T23:26:44.564Z,98374.34
2022-11-13T23:29:30.668Z,98376.13
2022-11-13T23:32:16.477Z,98375.72
2022-11-13T23:35:02.770Z,98372.25
2022-11-13T23:37:48.473Z,98374.06
2022-11-13T23:40:35.675Z,98376.88
2022-11-13T23:43:22.289Z,98361.28
2022-11-13T23:46:07.943Z,98362.28
2022-11-13T23:48:53.485Z,98363.16
2022-11-13T23:51:39.594Z,98354.53
2022-11-13T23:54:26.684Z,98354.72
2022-11-13T23:57:12.780Z,98354.56
2022-11-13T23:59:58.530Z,98342.28
